Time;durP1;ratioP1;P1;durP2;ratioP2;P2;SDS_P1;SDS_P2;PMS_P1;PMS_P2;Temp;Humidity;BMP_temperature;BMP_pressure;BME280_temperature;BME280_humidity;BME280_pressure;Samples;Min_cycle;Max_cycle;Signal;HPM_P1;HPM_P2
2021/03/15 00:03:01;;;;;;;2.67;2.22;;;3.50;99.90;;;;;;6148794;28;20051;-82
2021/03/15 00:06:02;;;;;;;3.67;2.65;;;3.50;99.90;;;;;;6138708;28;20535;-83
2021/03/15 00:09:03;;;;;;;6.22;2.85;;;;;;;;;;6128504;28;20042;-83
2021/03/15 00:12:04;;;;;;;3.72;2.50;;;3.40;99.90;;;;;;6148418;28;20466;-83
2021/03/15 00:15:05;;;;;;;3.35;2.20;;;3.80;99.90;;;;;;6138752;28;20069;-82
2021/03/15 00:18:06;;;;;;;4.75;2.33;;;3.60;99.90;;;;;;6121922;28;20043;-83
2021/03/15 00:21:06;;;;;;;2.88;2.50;;;3.60;99.90;;;;;;6131942;28;20489;-82
2021/03/15 00:24:07;;;;;;;3.95;2.60;;;3.40;99.90;;;;;;6132438;28;20098;-83
2021/03/15 00:27:08;;;;;;;3.15;2.70;;;3.60;99.90;;;;;;6135641;28;20035;-82
2021/03/15 00:30:10;;;;;;;2.42;2.15;;;3.40;99.90;;;;;;6136061;28;20039;-82
2021/03/15 00:33:11;;;;;;;4.35;2.70;;;3.40;99.90;;;;;;6138281;28;20030;-83
2021/03/15 00:36:11;;;;;;;4.05;2.38;;;3.30;99.90;;;;;;6146910;28;20409;-83
2021/03/15 00:39:13;;;;;;;4.65;2.50;;;3.50;99.90;;;;;;6148571;28;20051;-84
2021/03/15 00:42:13;;;;;;;5.75;2.20;;;3.40;99.90;;;;;;6140745;28;20076;-83
2021/03/15 00:45:14;;;;;;;5.47;2.42;;;3.60;99.90;;;;;;6131262;28;20159;-82
2021/03/15 00:48:15;;;;;;;5.07;2.47;;;3.40;99.90;;;;;;6131255;28;20035;-81
2021/03/15 00:51:16;;;;;;;3.65;2.33;;;;;;;;;;6136910;28;20385;-83
2021/03/15 00:54:17;;;;;;;2.40;2.20;;;3.20;99.90;;;;;;6145765;28;20478;-84
2021/03/15 00:57:18;;;;;;;4.15;2.50;;;;;;;;;;6130876;28;20110;-82
2021/03/15 01:00:22;;;;;;;4.90;2.60;;;3.60;99.90;;;;;;6131085;28;20089;-83
2021/03/15 01:03:22;;;;;;;3.95;2.45;;;3.50;99.90;;;;;;6134963;28;20045;-82
2021/03/15 01:06:23;;;;;;;2.65;2.45;;;3.50;99.90;;;;;;6153015;28;20485;-82
2021/03/15 01:09:24;;;;;;;5.72;2.80;;;;;;;;;;6142534;28;20031;-83
2021/03/15 01:12:25;;;;;;;4.72;3.38;;;3.20;99.90;;;;;;6147079;28;20031;-82
2021/03/15 01:15:25;;;;;;;5.00;2.88;;;3.50;99.90;;;;;;6130812;28;20086;-82
2021/03/15 01:18:26;;;;;;;5.60;3.00;;;3.50;99.90;;;;;;6146410;28;20485;-82
2021/03/15 01:21:27;;;;;;;3.75;2.78;;;3.50;99.90;;;;;;6136848;28;20042;-82
2021/03/15 01:24:27;;;;;;;4.10;2.58;;;3.40;99.90;;;;;;6136390;28;20039;-82
2021/03/15 01:27:28;;;;;;;2.63;2.33;;;;;;;;;;6130475;28;20369;-84
2021/03/15 01:30:31;;;;;;;3.30;2.50;;;3.60;99.90;;;;;;6132805;28;20082;-84
2021/03/15 01:33:31;;;;;;;8.80;3.45;;;3.60;99.90;;;;;;6152790;28;20031;-82
2021/03/15 01:36:32;;;;;;;4.00;3.03;;;3.50;99.90;;;;;;6123310;28;20122;-84
2021/03/15 01:39:33;;;;;;;5.05;3.00;;;3.50;99.90;;;;;;6120372;28;20055;-83
2021/03/15 01:42:33;;;;;;;6.15;3.17;;;3.60;99.90;;;;;;6136952;28;20078;-82
2021/03/15 01:45:35;;;;;;;3.97;2.90;;;;;;;;;;6150669;28;20043;-83
2021/03/15 01:48:35;;;;;;;6.50;3.25;;;3.80;99.90;;;;;;6154668;28;20047;-83
2021/03/15 01:51:36;;;;;;;6.45;3.00;;;;;;;;;;6129793;28;20163;-82
2021/03/15 01:54:37;;;;;;;5.97;3.10;;;;;;;;;;6147275;28;20027;-82
2021/03/15 01:57:38;;;;;;;7.25;3.67;;;;;;;;;;6136849;28;20077;-84
2021/03/15 02:00:40;;;;;;;3.92;3.13;;;;;;;;;;6158386;28;20066;-83
2021/03/15 02:03:40;;;;;;;6.32;3.60;;;3.70;99.90;;;;;;6136873;28;20075;-83
2021/03/15 02:06:42;;;;;;;5.57;3.63;;;3.80;99.90;;;;;;6145754;28;20609;-85
2021/03/15 02:09:42;;;;;;;5.60;3.10;;;3.60;99.90;;;;;;6129714;28;20118;-83
2021/03/15 02:12:43;;;;;;;6.57;3.45;;;;;;;;;;6129337;28;20037;-83
2021/03/15 02:16:00;;;;;;;10.02;3.53;;;3.70;99.90;;;;;;6167323;28;20038;-82
2021/03/15 02:19:44;;;;;;;4.82;3.30;;;4.00;99.90;;;;;;6143755;28;20019;-83
2021/03/15 02:22:53;;;;;;;;;;;3.90;99.90;;;;;;6140850;28;20027;-83
2021/03/15 02:26:03;;;;;;;8.00;3.42;;;3.80;99.90;;;;;;6131474;28;19918;-82
2021/03/15 02:29:35;;;;;;;6.47;3.20;;;4.10;99.90;;;;;;6149939;28;20090;-82
2021/03/15 02:32:44;;;;;;;9.18;4.03;;;4.00;99.90;;;;;;6169425;28;20038;-82
2021/03/15 02:35:45;;;;;;;4.05;3.17;;;4.00;99.90;;;;;;6158849;28;20094;-83
2021/03/15 02:38:46;;;;;;;3.83;2.95;;;4.30;99.90;;;;;;6136025;28;20055;-82
2021/03/15 02:41:47;;;;;;;6.13;3.10;;;4.10;99.90;;;;;;6135968;28;20031;-82
2021/03/15 02:44:50;;;;;;;8.00;3.22;;;3.90;99.90;;;;;;6139789;28;20119;-83
2021/03/15 02:47:51;;;;;;;6.63;3.10;;;;;;;;;;6129335;28;20030;-82
2021/03/15 02:50:52;;;;;;;6.22;3.25;;;4.00;99.90;;;;;;6134747;28;20035;-82
2021/03/15 02:53:53;;;;;;;8.15;3.53;;;;;;;;;;6129102;28;20028;-82
2021/03/15 02:56:54;;;;;;;8.10;4.35;;;4.10;99.90;;;;;;6141195;28;20030;-84
2021/03/15 02:59:55;;;;;;;5.68;3.58;;;;;;;;;;6139668;28;20035;-82
2021/03/15 03:02:56;;;;;;;8.57;3.67;;;4.00;99.90;;;;;;6152413;28;20031;-84
2021/03/15 03:05:57;;;;;;;8.43;3.47;;;;;;;;;;6125868;28;20460;-82
2021/03/15 03:08:59;;;;;;;6.72;3.30;;;4.20;99.90;;;;;;6128783;28;20491;-82
2021/03/15 03:12:00;;;;;;;5.38;3.38;;;4.40;99.90;;;;;;6128983;28;20031;-83
2021/03/15 03:15:01;;;;;;;7.22;3.35;;;4.10;99.90;;;;;;6145031;28;20086;-83
2021/03/15 03:18:02;;;;;;;9.02;3.38;;;4.40;99.90;;;;;;6137051;28;20034;-82
2021/03/15 03:21:03;;;;;;;7.93;3.97;;;4.10;99.90;;;;;;6155583;28;20033;-83
2021/03/15 03:24:04;;;;;;;8.57;3.70;;;4.40;99.90;;;;;;6156178;28;20380;-83
2021/03/15 03:27:05;;;;;;;9.45;3.75;;;4.00;99.90;;;;;;6156021;28;20034;-85
2021/03/15 03:30:07;;;;;;;10.30;4.38;;;4.50;99.90;;;;;;6139927;28;20073;-82
2021/03/15 03:33:08;;;;;;;9.80;3.67;;;4.50;99.90;;;;;;6139979;28;20027;-83
2021/03/15 03:36:08;;;;;;;8.65;3.63;;;4.30;99.90;;;;;;6147785;28;20046;-83
2021/03/15 03:39:10;;;;;;;8.27;3.53;;;4.00;99.90;;;;;;6133300;28;20047;-84
2021/03/15 03:42:10;;;;;;;7.75;3.60;;;4.30;99.90;;;;;;6148324;28;20126;-83
2021/03/15 03:45:12;;;;;;;6.22;3.33;;;4.10;99.90;;;;;;6132586;28;20050;-84
2021/03/15 03:48:12;;;;;;;4.70;3.00;;;4.00;99.90;;;;;;6142255;28;20489;-82
2021/03/15 03:51:13;;;;;;;5.07;3.03;;;;;;;;;;6135728;28;20027;-82
2021/03/15 03:54:17;;;;;;;3.90;3.10;;;4.10;99.90;;;;;;6154000;28;20027;-84
2021/03/15 03:57:30;;;;;;;5.78;2.92;;;4.20;99.90;;;;;;6125122;28;20034;-82
2021/03/15 04:00:31;;;;;;;7.25;2.90;;;;;;;;;;6137169;28;20109;-83
2021/03/15 04:03:32;;;;;;;4.15;3.10;;;3.90;99.90;;;;;;6155380;28;20035;-83
2021/03/15 04:06:34;;;;;;;4.07;2.50;;;4.20;99.90;;;;;;6135163;28;20124;-83
2021/03/15 04:09:35;;;;;;;;;;;4.10;99.90;;;;;;6123845;28;20032;-82
2021/03/15 04:12:37;;;;;;;5.28;2.92;;;4.00;99.90;;;;;;6148483;28;20383;-83
2021/03/15 04:15:44;;;;;;;3.65;2.60;;;4.00;99.90;;;;;;6158574;28;20038;-82
2021/03/15 04:18:48;;;;;;;2.67;1.90;;;4.00;99.90;;;;;;6119365;28;20042;-83
2021/03/15 04:21:48;;;;;;;2.63;2.17;;;4.00;99.90;;;;;;6138034;28;20358;-83
2021/03/15 04:24:49;;;;;;;2.97;2.40;;;4.30;99.90;;;;;;6135806;28;20133;-82
2021/03/15 04:27:50;;;;;;;2.65;2.10;;;;;;;;;;6131835;28;20031;-83
2021/03/15 04:30:51;;;;;;;3.10;2.00;;;4.00;99.90;;;;;;6130689;28;20023;-83
2021/03/15 04:33:52;;;;;;;3.58;1.92;;;4.00;99.90;;;;;;6138379;28;20027;-83
2021/03/15 04:36:53;;;;;;;4.65;2.05;;;4.50;99.90;;;;;;6131586;28;20062;-83
2021/03/15 04:39:54;;;;;;;4.70;2.22;;;4.00;99.90;;;;;;6150391;28;20047;-82
2021/03/15 04:43:01;;;;;;;4.82;1.90;;;3.90;99.90;;;;;;6131679;28;20126;-82
2021/03/15 04:46:02;;;;;;;6.10;2.13;;;5.20;99.90;;;;;;6132549;28;20043;-84
2021/03/15 04:49:07;;;;;;;2.33;2.10;;;3.80;99.90;;;;;;6131801;28;20038;-83
2021/03/15 04:52:07;;;;;;;1.88;1.75;;;4.80;99.90;;;;;;6142855;28;20144;-83
2021/03/15 04:55:11;;;;;;;4.40;1.90;;;4.20;99.90;;;;;;6132258;28;20035;-83
2021/03/15 04:58:13;;;;;;;2.30;1.52;;;4.00;99.90;;;;;;6139376;28;20478;-83
2021/03/15 05:01:13;;;;;;;2.80;1.60;;;4.40;99.90;;;;;;6129784;28;20385;-82
2021/03/15 05:04:14;;;;;;;1.70;1.60;;;4.10;99.90;;;;;;6141180;28;20086;-84
2021/03/15 05:07:17;;;;;;;3.45;1.50;;;4.30;99.90;;;;;;6131405;28;20470;-84
2021/03/15 05:10:18;;;;;;;2.10;1.48;;;4.00;99.90;;;;;;6154093;28;20042;-83
2021/03/15 05:13:19;;;;;;;1.98;1.60;;;4.00;99.90;;;;;;6137938;28;20034;-83
2021/03/15 05:16:20;;;;;;;3.55;1.75;;;;;;;;;;6114863;28;20043;-83
2021/03/15 05:19:21;;;;;;;2.53;1.50;;;3.90;99.90;;;;;;6168819;28;20034;-84
2021/03/15 05:22:21;;;;;;;1.42;1.33;;;4.50;99.90;;;;;;6122775;28;20032;-83
2021/03/15 05:25:22;;;;;;;1.98;1.80;;;4.30;99.90;;;;;;6131855;28;20094;-85
2021/03/15 05:28:23;;;;;;;2.72;1.42;;;;;;;;;;6147226;28;20426;-84
2021/03/15 05:31:24;;;;;;;2.28;1.50;;;;;;;;;;6148013;28;20365;-86
2021/03/15 05:34:47;;;;;;;2.28;1.65;;;4.10;99.90;;;;;;6120772;28;20038;-84
2021/03/15 05:37:50;;;;;;;2.17;1.58;;;;;;;;;;6147286;28;20038;-83
2021/03/15 05:40:51;;;;;;;1.27;1.05;;;4.00;99.90;;;;;;6118508;28;20054;-84
2021/03/15 05:44:23;;;;;;;6.13;1.75;;;4.20;99.90;;;;;;6151673;28;20579;-84
2021/03/15 05:47:39;;;;;;;2.05;1.15;;;4.20;99.00;;;;;;6152958;28;20042;-85
2021/03/15 05:50:49;;;;;;;1.20;1.10;;;;;;;;;;6148904;28;20466;-85
2021/03/15 05:54:18;;;;;;;2.15;1.20;;;4.40;99.90;;;;;;6158046;28;20019;-84
2021/03/15 05:57:40;;;;;;;3.15;1.23;;;4.30;99.90;;;;;;6158154;28;20042;-84
2021/03/15 06:01:15;;;;;;;3.00;1.63;;;4.60;99.90;;;;;;6149793;28;20127;-86
2021/03/15 06:04:30;;;;;;;1.65;1.05;;;4.20;98.60;;;;;;6168872;28;20035;-85
2021/03/15 06:07:33;;;;;;;2.20;1.30;;;4.30;99.20;;;;;;6165336;28;20067;-81
2021/03/15 06:10:36;;;;;;;1.88;1.25;;;4.90;99.90;;;;;;6118764;28;20030;-84
2021/03/15 06:13:38;;;;;;;1.23;1.10;;;3.90;99.90;;;;;;6150316;28;20057;-85
2021/03/15 06:16:38;;;;;;;2.13;1.60;;;4.10;99.90;;;;;;6120049;28;20774;-83
2021/03/15 06:19:39;;;;;;;1.65;1.35;;;;;;;;;;6136725;28;20159;-82
2021/03/15 06:22:40;;;;;;;1.63;1.27;;;4.00;99.90;;;;;;6145440;28;20046;-81
2021/03/15 06:25:41;;;;;;;1.60;1.30;;;4.40;99.90;;;;;;6165196;28;20507;-81
2021/03/15 06:28:41;;;;;;;1.17;1.10;;;3.90;99.90;;;;;;6118970;28;20035;-81
2021/03/15 06:31:49;;;;;;;2.55;1.38;;;3.80;99.90;;;;;;6141248;28;20537;-81
2021/03/15 06:34:49;;;;;;;1.20;1.10;;;3.80;99.90;;;;;;6135810;28;20065;-82
2021/03/15 06:37:50;;;;;;;1.35;1.27;;;4.20;99.90;;;;;;6136179;28;20038;-81
2021/03/15 06:40:51;;;;;;;1.45;1.35;;;3.80;99.90;;;;;;6136092;28;20051;-82
2021/03/15 06:43:51;;;;;;;1.50;1.10;;;3.80;99.90;;;;;;6133129;28;20069;-81
2021/03/15 06:46:52;;;;;;;1.58;1.23;;;;;;;;;;6139036;28;20482;-82
2021/03/15 06:49:54;;;;;;;0.98;0.90;;;3.80;99.90;;;;;;6129572;28;20019;-82
2021/03/15 06:52:59;;;;;;;1.42;1.08;;;5.10;99.90;;;;;;6143496;28;20074;-81
2021/03/15 06:55:59;;;;;;;1.25;1.15;;;3.70;99.90;;;;;;6156013;28;20046;-81
2021/03/15 06:59:00;;;;;;;0.88;0.77;;;;;;;;;;6166223;28;20045;-82
2021/03/15 07:02:01;;;;;;;0.63;0.63;;;;;;;;;;6141181;28;20054;-82
2021/03/15 07:05:15;;;;;;;0.50;0.50;;;3.80;99.90;;;;;;6139117;28;20130;-81
2021/03/15 07:08:16;;;;;;;0.60;0.60;;;;;;;;;;6157567;28;20082;-83
2021/03/15 07:11:17;;;;;;;0.65;0.65;;;4.00;99.90;;;;;;6133899;28;20106;-81
2021/03/15 07:14:25;;;;;;;0.50;0.50;;;3.80;99.90;;;;;;6140907;28;20066;-82
2021/03/15 07:17:26;;;;;;;0.70;0.65;;;;;;;;;;6149503;28;20278;-81
2021/03/15 07:20:40;;;;;;;1.60;1.10;;;4.10;99.90;;;;;;6149874;28;20031;-80
2021/03/15 07:23:49;;;;;;;1.20;1.17;;;4.00;99.90;;;;;;6133378;28;20393;-81
2021/03/15 07:26:50;;;;;;;0.80;0.80;;;4.10;99.90;;;;;;6142486;28;20038;-84
2021/03/15 07:29:51;;;;;;;0.73;0.73;;;;;;;;;;6156101;28;20057;-81
2021/03/15 07:32:51;;;;;;;0.68;0.68;;;4.30;99.90;;;;;;6140104;28;20062;-81
2021/03/15 07:35:52;;;;;;;1.35;1.13;;;4.40;99.90;;;;;;6155516;28;20037;-82
2021/03/15 07:38:57;;;;;;;0.98;0.98;;;4.10;99.90;;;;;;6151831;28;20502;-79
2021/03/15 07:42:01;;;;;;;0.52;0.52;;;4.00;99.90;;;;;;6140507;28;20382;-78
2021/03/15 07:45:02;;;;;;;0.77;0.77;;;4.00;99.90;;;;;;6162509;28;20049;-79
2021/03/15 07:48:09;;;;;;;0.68;0.68;;;3.90;99.90;;;;;;6152826;28;20027;-78
2021/03/15 07:51:10;;;;;;;0.80;0.80;;;4.00;99.90;;;;;;6137199;28;20070;-79
2021/03/15 07:54:11;;;;;;;1.17;0.93;;;3.90;99.90;;;;;;6153943;28;20033;-79
2021/03/15 07:57:22;;;;;;;0.63;0.63;;;3.90;99.90;;;;;;6145747;28;20019;-79
2021/03/15 08:00:23;;;;;;;0.30;0.30;;;4.10;99.90;;;;;;6118318;28;20370;-80
2021/03/15 08:03:24;;;;;;;0.70;0.70;;;4.10;99.90;;;;;;6159143;28;20035;-79
2021/03/15 08:06:25;;;;;;;0.70;0.70;;;4.10;99.90;;;;;;6145424;28;20051;-79
2021/03/15 08:09:25;;;;;;;1.48;0.68;;;4.50;99.90;;;;;;6129311;28;20110;-79
2021/03/15 08:12:45;;;;;;;1.02;0.63;;;4.00;99.90;;;;;;6132472;28;20031;-79
2021/03/15 08:15:47;;;;;;;0.60;0.60;;;4.20;99.90;;;;;;6148905;28;20027;-80
2021/03/15 08:18:48;;;;;;;0.60;0.60;;;4.00;99.90;;;;;;6132689;28;20124;-79
2021/03/15 08:21:48;;;;;;;0.80;0.80;;;4.60;99.90;;;;;;6131734;28;20035;-79
2021/03/15 08:24:49;;;;;;;0.80;0.80;;;4.10;99.90;;;;;;6134613;28;20034;-79
2021/03/15 08:27:50;;;;;;;2.03;1.02;;;4.00;99.90;;;;;;6133014;28;20088;-79
2021/03/15 08:30:54;;;;;;;2.22;1.70;;;4.10;99.90;;;;;;6156091;28;20548;-79
2021/03/15 08:33:55;;;;;;;1.10;0.98;;;4.10;99.90;;;;;;6144456;28;20035;-79
2021/03/15 08:36:56;;;;;;;1.20;1.20;;;;;;;;;;6132699;28;20398;-79
2021/03/15 08:39:56;;;;;;;0.75;0.75;;;3.80;99.90;;;;;;6153002;28;20057;-79
2021/03/15 08:43:17;;;;;;;0.70;0.70;;;4.00;99.90;;;;;;6140474;28;20035;-79
2021/03/15 08:46:38;;;;;;;0.68;0.68;;;4.00;99.90;;;;;;6157919;28;20039;-79
2021/03/15 08:49:42;;;;;;;7.70;2.17;;;4.20;99.90;;;;;;6147022;28;20050;-80
2021/03/15 08:52:43;;;;;;;0.82;0.82;;;4.20;99.90;;;;;;6139339;28;20374;-80
2021/03/15 08:55:50;;;;;;;1.08;1.00;;;5.30;99.90;;;;;;6157803;28;20030;-79
2021/03/15 08:58:54;;;;;;;3.35;2.08;;;4.20;99.90;;;;;;6148723;28;20054;-80
2021/03/15 09:01:57;;;;;;;1.70;1.60;;;4.00;99.90;;;;;;6130872;28;20031;-79
2021/03/15 09:04:57;;;;;;;;;;;4.30;99.90;;;;;;6139021;28;20474;-79
2021/03/15 09:08:00;;;;;;;1.30;1.20;;;4.30;99.90;;;;;;6148753;28;19921;-78
2021/03/15 09:11:01;;;;;;;1.58;1.15;;;4.30;99.90;;;;;;6156426;28;20493;-78
2021/03/15 09:14:14;;;;;;;2.35;1.40;;;4.30;99.90;;;;;;6139758;28;20030;-77
2021/03/15 09:17:14;;;;;;;0.82;0.82;;;4.60;99.90;;;;;;6156848;28;20066;-79
2021/03/15 09:20:15;;;;;;;0.95;0.95;;;4.40;99.90;;;;;;6157071;28;20030;-79
2021/03/15 09:23:32;;;;;;;5.03;3.67;;;4.50;99.90;;;;;;6141321;28;20031;-79
2021/03/15 09:26:33;;;;;;;1.73;1.25;;;4.50;99.90;;;;;;6138078;28;20090;-78
2021/03/15 09:29:34;;;;;;;1.13;1.05;;;;;;;;;;6137420;28;20019;-78
2021/03/15 09:32:35;;;;;;;0.90;0.90;;;;;;;;;;6139712;28;20019;-79
2021/03/15 09:35:41;;;;;;;1.73;1.60;;;4.60;99.90;;;;;;6155726;28;20034;-78
2021/03/15 09:38:42;;;;;;;1.38;1.20;;;4.70;99.90;;;;;;6145918;28;20043;-78
2021/03/15 09:41:45;;;;;;;0.98;0.98;;;4.90;99.90;;;;;;6134124;28;20110;-78
2021/03/15 09:44:46;;;;;;;1.30;0.77;;;4.90;99.90;;;;;;6118898;28;20035;-79
2021/03/15 09:47:47;;;;;;;1.90;1.80;;;;;;;;;;6150764;28;20106;-80
2021/03/15 09:50:51;;;;;;;1.50;1.40;;;5.10;99.90;;;;;;6165136;28;20030;-79
2021/03/15 09:53:54;;;;;;;1.13;1.10;;;4.80;99.90;;;;;;6143698;28;20469;-79
2021/03/15 09:57:01;;;;;;;1.27;1.27;;;5.50;99.90;;;;;;6163520;28;20202;-79
2021/03/15 10:00:21;;;;;;;3.20;1.63;;;5.50;99.90;;;;;;6155231;28;20031;-79
2021/03/15 10:03:22;;;;;;;1.52;1.42;;;5.00;99.90;;;;;;6134958;28;20031;-79
2021/03/15 10:06:23;;;;;;;1.58;1.42;;;5.20;99.90;;;;;;6139770;28;20117;-84
2021/03/15 10:09:24;;;;;;;1.95;1.42;;;;;;;;;;6143041;28;20389;-84
2021/03/15 10:12:25;;;;;;;1.48;1.40;;;4.90;98.70;;;;;;6152297;28;20559;-84
2021/03/15 10:15:26;;;;;;;2.22;1.50;;;5.20;99.90;;;;;;6129111;28;20047;-84
2021/03/15 10:18:26;;;;;;;1.73;1.48;;;5.10;99.90;;;;;;6131331;28;20478;-84
2021/03/15 10:21:27;;;;;;;1.50;1.40;;;5.40;99.90;;;;;;6115702;28;20123;-79
2021/03/15 10:24:32;;;;;;;3.03;1.55;;;5.00;99.90;;;;;;6150825;28;20122;-79
2021/03/15 10:27:33;;;;;;;3.80;1.67;;;5.60;99.90;;;;;;6134572;28;20369;-79
2021/03/15 10:30:35;;;;;;;2.10;1.90;;;4.90;99.90;;;;;;6133506;28;20036;-80
2021/03/15 10:33:35;;;;;;;3.20;1.90;;;6.10;99.90;;;;;;6133850;28;20114;-79
2021/03/15 10:36:36;;;;;;;3.10;2.10;;;4.90;99.90;;;;;;6149568;28;20027;-79
2021/03/15 10:39:48;;;;;;;1.75;1.60;;;4.80;99.90;;;;;;6159895;28;20085;-78
2021/03/15 10:42:49;;;;;;;2.30;1.55;;;5.10;99.90;;;;;;6141477;28;20441;-80
2021/03/15 10:45:50;;;;;;;1.75;1.65;;;5.30;99.90;;;;;;6143403;28;20053;-80
2021/03/15 10:48:50;;;;;;;2.40;2.00;;;4.80;99.90;;;;;;6140137;28;20031;-79
2021/03/15 10:51:53;;;;;;;1.77;1.55;;;4.70;99.90;;;;;;6140608;28;20030;-79
2021/03/15 10:54:53;;;;;;;1.63;1.52;;;5.30;99.90;;;;;;6145925;28;20405;-79
2021/03/15 10:58:11;;;;;;;2.60;2.17;;;4.80;99.90;;;;;;6151003;28;20034;-80
2021/03/15 11:01:12;;;;;;;1.25;1.15;;;4.90;99.90;;;;;;6134367;28;20117;-80
2021/03/15 11:04:12;;;;;;;2.50;1.65;;;5.80;99.90;;;;;;6150267;28;20389;-80
2021/03/15 11:07:20;;;;;;;1.60;1.45;;;4.90;99.90;;;;;;6144468;28;20046;-80
2021/03/15 11:10:23;;;;;;;2.53;1.90;;;4.90;99.90;;;;;;6155953;28;20038;-80
2021/03/15 11:13:25;;;;;;;2.20;1.95;;;5.00;99.90;;;;;;6150029;28;20033;-80
2021/03/15 11:16:30;;;;;;;14.17;8.80;;;5.10;99.90;;;;;;6135369;28;20035;-80
2021/03/15 11:19:30;;;;;;;3.20;2.50;;;5.10;99.90;;;;;;6147485;28;20492;-80
2021/03/15 11:22:48;;;;;;;4.60;3.47;;;5.10;99.90;;;;;;6133105;28;20024;-79
2021/03/15 11:25:49;;;;;;;9.02;4.75;;;5.10;99.90;;;;;;6133470;28;20484;-82
2021/03/15 11:28:57;;;;;;;2.20;2.00;;;6.00;99.90;;;;;;6129802;28;20042;-78
2021/03/15 11:31:57;;;;;;;1.70;1.60;;;5.60;99.90;;;;;;6149015;28;20055;-79
2021/03/15 11:34:58;;;;;;;4.20;2.67;;;5.70;99.90;;;;;;6160728;28;20047;-79
2021/03/15 11:37:59;;;;;;;3.10;2.47;;;6.80;99.90;;;;;;6155437;28;20041;-83
2021/03/15 11:41:00;;;;;;;4.15;2.30;;;6.20;99.90;;;;;;6146704;28;20050;-79
2021/03/15 11:44:03;;;;;;;3.42;1.92;;;6.30;99.90;;;;;;6137737;28;20095;-80
2021/03/15 11:47:05;;;;;;;6.40;2.92;;;6.30;99.90;;;;;;6139264;28;20047;-82
2021/03/15 11:50:06;;;;;;;3.37;2.37;;;6.30;99.90;;;;;;6155264;28;20417;-79
2021/03/15 11:53:07;;;;;;;2.58;2.20;;;6.70;99.90;;;;;;6171130;28;20939;-79
2021/03/15 11:56:08;;;;;;;4.00;2.28;;;6.40;99.90;;;;;;6144071;28;20030;-79
2021/03/15 11:59:08;;;;;;;2.92;2.20;;;6.60;99.90;;;;;;6131716;28;20032;-80
2021/03/15 12:02:09;;;;;;;3.72;2.35;;;;;;;;;;6147675;28;20481;-80
2021/03/15 12:05:10;;;;;;;4.50;2.00;;;6.90;99.90;;;;;;6117090;28;20523;-80
2021/03/15 12:08:11;;;;;;;3.25;2.38;;;;;;;;;;6137317;28;20030;-80
2021/03/15 12:11:12;;;;;;;2.00;1.90;;;;;;;;;;6153111;28;20035;-82
2021/03/15 12:14:13;;;;;;;4.05;2.30;;;;;;;;;;6131795;28;20031;-81
2021/03/15 12:17:14;;;;;;;3.55;2.13;;;;;;;;;;6163374;28;20038;-80
2021/03/15 12:20:22;;;;;;;2.63;1.98;;;;;;;;;;6150508;28;20023;-79
2021/03/15 12:23:22;;;;;;;2.50;1.90;;;7.30;99.90;;;;;;6156159;28;20124;-82
2021/03/15 12:26:23;;;;;;;2.58;2.10;;;;;;;;;;6131569;28;20467;-83
2021/03/15 12:29:24;;;;;;;2.95;2.30;;;;;;;;;;6154910;28;20023;-81
2021/03/15 12:32:25;;;;;;;2.83;1.80;;;;;;;;;;6146999;28;20035;-82
2021/03/15 12:35:28;;;;;;;2.28;1.83;;;;;;;;;;6132865;28;20035;-83
2021/03/15 12:38:29;;;;;;;3.25;2.70;;;;;;;;;;6138513;28;20606;-87
2021/03/15 12:41:30;;;;;;;3.63;2.00;;;;;;;;;;6135717;28;20078;-83
2021/03/15 12:44:34;;;;;;;2.88;2.13;;;9.10;98.90;;;;;;6146503;28;20538;-83
2021/03/15 12:47:34;;;;;;;6.32;2.40;;;9.10;99.90;;;;;;6139868;28;20067;-84
2021/03/15 12:50:35;;;;;;;2.92;2.20;;;9.40;99.00;;;;;;6130055;28;20035;-84
2021/03/15 12:53:36;;;;;;;3.20;2.20;;;9.80;99.90;;;;;;6153376;28;20031;-84
2021/03/15 12:56:37;;;;;;;2.42;2.22;;;9.80;95.50;;;;;;6134679;28;20386;-84
2021/03/15 12:59:38;;;;;;;3.63;2.20;;;9.50;94.30;;;;;;6137742;28;20039;-82
2021/03/15 13:02:39;;;;;;;3.80;2.30;;;9.40;95.90;;;;;;6137880;28;20118;-81
2021/03/15 13:05:39;;;;;;;3.53;2.40;;;9.00;96.20;;;;;;6130539;28;20051;-81
2021/03/15 13:08:41;;;;;;;3.67;2.30;;;8.90;97.30;;;;;;6162307;28;20030;-81
2021/03/15 13:11:42;;;;;;;3.22;2.45;;;8.70;97.80;;;;;;6137190;28;20111;-81
2021/03/15 13:14:43;;;;;;;3.10;2.45;;;8.40;98.70;;;;;;6153485;28;20034;-78
2021/03/15 13:17:49;;;;;;;3.70;2.78;;;7.60;99.90;;;;;;6137367;28;20525;-78
2021/03/15 13:20:49;;;;;;;4.15;2.75;;;7.50;99.90;;;;;;6132228;28;20043;-79
2021/03/15 13:23:50;;;;;;;2.85;2.50;;;6.90;99.90;;;;;;6146309;28;20054;-78
2021/03/15 13:26:51;;;;;;;2.88;2.58;;;7.00;99.90;;;;;;6146351;28;20466;-78
2021/03/15 13:29:51;;;;;;;3.42;2.67;;;6.90;99.90;;;;;;6146150;28;20042;-78
2021/03/15 13:32:52;;;;;;;3.10;2.70;;;6.60;99.90;;;;;;6147852;28;20106;-79
2021/03/15 13:35:53;;;;;;;5.03;2.53;;;7.00;99.90;;;;;;6147797;28;20063;-79
2021/03/15 13:38:54;;;;;;;2.72;2.50;;;6.60;99.90;;;;;;6136944;28;20553;-79
2021/03/15 13:41:54;;;;;;;4.38;2.60;;;6.70;99.90;;;;;;6153139;28;20056;-79
2021/03/15 13:44:55;;;;;;;3.03;2.58;;;6.80;99.90;;;;;;6152562;28;20114;-79
2021/03/15 13:47:56;;;;;;;4.00;2.90;;;7.30;99.90;;;;;;6113807;28;20027;-79
2021/03/15 13:50:56;;;;;;;4.78;3.10;;;7.50;99.90;;;;;;6145876;28;20790;-77
2021/03/15 13:53:57;;;;;;;2.72;2.47;;;;;;;;;;6129759;28;20027;-78
2021/03/15 13:56:58;;;;;;;2.97;2.42;;;8.40;98.10;;;;;;6145709;28;20041;-77
2021/03/15 13:59:59;;;;;;;2.92;2.45;;;8.70;99.60;;;;;;6143213;28;20070;-80
2021/03/15 14:03:00;;;;;;;2.75;2.25;;;;;;;;;;6117877;28;20035;-79
2021/03/15 14:06:00;;;;;;;2.65;2.10;;;8.70;98.40;;;;;;6146147;28;20126;-78
2021/03/15 14:09:01;;;;;;;2.38;2.10;;;8.40;98.00;;;;;;6129404;28;20544;-78
2021/03/15 14:12:02;;;;;;;2.55;2.15;;;;;;;;;;6168445;28;20031;-78
2021/03/15 14:15:04;;;;;;;2.30;2.10;;;8.40;97.20;;;;;;6152628;28;20034;-80
2021/03/15 14:18:05;;;;;;;;;;;8.80;98.50;;;;;;6126031;28;20038;-80
2021/03/15 14:21:06;;;;;;;4.05;2.70;;;8.70;98.20;;;;;;6145687;28;19911;-80
2021/03/15 14:24:07;;;;;;;4.40;2.90;;;8.50;98.80;;;;;;6146318;28;20389;-80
2021/03/15 14:27:08;;;;;;;3.05;2.50;;;8.20;98.10;;;;;;6145225;28;20131;-79
2021/03/15 14:30:09;;;;;;;3.28;2.75;;;8.00;99.60;;;;;;6129132;28;20038;-80
2021/03/15 14:33:10;;;;;;;3.67;2.67;;;7.20;99.90;;;;;;6149698;28;20038;-80
2021/03/15 14:36:10;;;;;;;12.07;8.60;;;7.10;99.90;;;;;;6132167;28;20450;-79
2021/03/15 14:39:11;;;;;;;8.27;7.05;;;7.20;99.90;;;;;;6128177;28;20053;-80
2021/03/15 14:42:11;;;;;;;8.02;5.95;;;7.00;99.90;;;;;;6145617;28;20035;-79
2021/03/15 14:45:12;;;;;;;6.68;5.53;;;7.10;99.90;;;;;;6145534;28;20047;-80
2021/03/15 14:48:14;;;;;;;3.45;3.05;;;7.00;99.90;;;;;;6145655;28;20458;-80
2021/03/15 14:51:15;;;;;;;5.30;2.67;;;;;;;;;;6145299;28;20039;-80
2021/03/15 14:54:16;;;;;;;3.85;2.70;;;6.90;99.90;;;;;;6146256;28;20486;-80
2021/03/15 14:57:18;;;;;;;4.10;2.53;;;;;;;;;;6145567;28;20102;-80
2021/03/15 15:00:19;;;;;;;3.05;2.20;;;7.10;99.90;;;;;;6150836;28;20162;-80
2021/03/15 15:03:20;;;;;;;3.13;2.30;;;;;;;;;;6131088;28;20054;-80
2021/03/15 15:06:21;;;;;;;2.42;2.22;;;;;;;;;;6154865;28;20039;-80
2021/03/15 15:09:22;;;;;;;3.33;2.90;;;7.70;99.90;;;;;;6144132;28;20027;-80
2021/03/15 15:12:23;;;;;;;4.40;3.22;;;;;;;;;;6116472;28;20097;-80
2021/03/15 15:15:23;;;;;;;3.33;3.00;;;7.80;99.90;;;;;;6133659;28;20030;-80
2021/03/15 15:18:24;;;;;;;3.28;2.95;;;;;;;;;;6138777;28;20040;-81
2021/03/15 15:21:25;;;;;;;3.33;2.60;;;8.60;96.60;;;;;;6150716;28;20106;-79
2021/03/15 15:24:26;;;;;;;3.58;2.90;;;8.90;97.10;;;;;;6133119;28;20031;-80
2021/03/15 15:27:26;;;;;;;2.80;2.47;;;9.10;98.00;;;;;;6133229;28;20582;-80
2021/03/15 15:30:28;;;;;;;3.63;2.90;;;9.30;97.10;;;;;;6154188;28;20031;-80
2021/03/15 15:33:29;;;;;;;3.20;2.83;;;9.30;97.00;;;;;;6150749;28;20041;-80
2021/03/15 15:36:29;;;;;;;2.70;2.50;;;9.10;96.30;;;;;;6137548;28;20271;-79
2021/03/15 15:39:30;;;;;;;2.67;2.17;;;8.70;95.80;;;;;;6153495;28;20055;-79
2021/03/15 15:42:31;;;;;;;3.20;2.72;;;8.50;96.70;;;;;;6148499;28;20118;-80
2021/03/15 15:45:32;;;;;;;2.58;2.35;;;7.80;97.40;;;;;;6132193;28;20050;-80
2021/03/15 15:48:33;;;;;;;3.00;2.70;;;7.80;98.10;;;;;;6148745;28;20035;-80
2021/03/15 15:51:34;;;;;;;4.28;3.20;;;7.80;98.60;;;;;;6131979;28;20031;-80
2021/03/15 15:54:34;;;;;;;3.47;2.83;;;7.40;97.50;;;;;;6132990;28;20058;-80
2021/03/15 15:57:36;;;;;;;4.65;3.17;;;7.20;98.00;;;;;;6132568;28;20470;-80
2021/03/15 16:00:36;;;;;;;3.92;2.70;;;6.90;99.00;;;;;;6132288;28;20046;-80
2021/03/15 16:03:37;;;;;;;5.40;3.15;;;7.10;99.90;;;;;;6166806;28;20569;-80
2021/03/15 16:06:38;;;;;;;3.70;3.20;;;6.80;99.50;;;;;;6149135;28;20039;-80
2021/03/15 16:09:38;;;;;;;3.45;3.00;;;6.80;99.90;;;;;;6153762;28;20049;-79
2021/03/15 16:12:39;;;;;;;3.28;2.58;;;;;;;;;;6132212;28;20031;-80
2021/03/15 16:15:40;;;;;;;2.60;2.40;;;6.60;98.10;;;;;;6160891;28;20050;-80
2021/03/15 16:18:40;;;;;;;4.38;2.90;;;6.30;99.90;;;;;;6149341;28;20027;-82
2021/03/15 16:21:42;;;;;;;4.13;2.83;;;;;;;;;;6145729;28;20650;-84
2021/03/15 16:24:42;;;;;;;4.55;3.00;;;6.40;99.90;;;;;;6140394;28;20028;-80
2021/03/15 16:27:43;;;;;;;3.50;3.03;;;6.90;99.90;;;;;;6140827;28;20113;-80